sensor_id;sensor_type;location;lat;lon;timestamp;P1;durP1;ratioP1;P2;durP2;ratioP2
24147;SDS011;12309;51.450;-2.624;2023-04-01T00:00:56;8.97;;;3.23;;
24147;SDS011;12309;51.450;-2.624;2023-04-01T00:03:23;11.37;;;2.90;;
24147;SDS011;12309;51.450;-2.624;2023-04-01T00:05:51;16.63;;;3.43;;
24147;SDS011;12309;51.450;-2.624;2023-04-01T00:08:18;14.97;;;3.40;;
24147;SDS011;12309;51.450;-2.624;2023-04-01T00:10:44;15.97;;;3.83;;
24147;SDS011;12309;51.450;-2.624;2023-04-01T00:13:10;16.63;;;4.43;;
24147;SDS011;12309;51.450;-2.624;2023-04-01T00:15:36;15.23;;;3.97;;
24147;SDS011;12309;51.450;-2.624;2023-04-01T00:18:02;18.77;;;4.50;;
24147;SDS011;12309;51.450;-2.624;2023-04-01T00:20:27;18.20;;;3.80;;
24147;SDS011;12309;51.450;-2.624;2023-04-01T00:22:54;18.20;;;5.17;;
24147;SDS011;12309;51.450;-2.624;2023-04-01T00:25:20;9.60;;;3.63;;
24147;SDS011;12309;51.450;-2.624;2023-04-01T00:27:46;18.37;;;4.70;;
24147;SDS011;12309;51.450;-2.624;2023-04-01T00:30:12;17.33;;;4.10;;
24147;SDS011;12309;51.450;-2.624;2023-04-01T00:32:38;18.77;;;3.63;;
24147;SDS011;12309;51.450;-2.624;2023-04-01T00:35:04;14.73;;;3.87;;
24147;SDS011;12309;51.450;-2.624;2023-04-01T00:37:30;15.13;;;3.53;;
24147;SDS011;12309;51.450;-2.624;2023-04-01T00:39:56;12.83;;;3.03;;
24147;SDS011;12309;51.450;-2.624;2023-04-01T00:42:22;11.73;;;2.97;;
24147;SDS011;12309;51.450;-2.624;2023-04-01T00:44:50;14.43;;;3.50;;
24147;SDS011;12309;51.450;-2.624;2023-04-01T00:47:17;19.97;;;3.50;;
24147;SDS011;12309;51.450;-2.624;2023-04-01T00:49:44;12.40;;;3.13;;
24147;SDS011;12309;51.450;-2.624;2023-04-01T00:52:14;14.27;;;3.73;;
24147;SDS011;12309;51.450;-2.624;2023-04-01T00:54:43;16.97;;;3.20;;
24147;SDS011;12309;51.450;-2.624;2023-04-01T00:57:12;19.53;;;3.77;;
24147;SDS011;12309;51.450;-2.624;2023-04-01T00:59:45;13.97;;;3.43;;
24147;SDS011;12309;51.450;-2.624;2023-04-01T01:02:13;19.10;;;3.60;;
24147;SDS011;12309;51.450;-2.624;2023-04-01T01:04:40;16.37;;;3.70;;
24147;SDS011;12309;51.450;-2.624;2023-04-01T01:10:11;16.97;;;3.90;;
24147;SDS011;12309;51.450;-2.624;2023-04-01T01:15:45;12.90;;;3.53;;
24147;SDS011;12309;51.450;-2.624;2023-04-01T01:35:33;9.53;;;3.50;;
24147;SDS011;12309;51.450;-2.624;2023-04-01T01:38:05;13.00;;;3.23;;
24147;SDS011;12309;51.450;-2.624;2023-04-01T01:40:34;8.00;;;3.07;;
24147;SDS011;12309;51.450;-2.624;2023-04-01T01:43:08;11.90;;;3.43;;
24147;SDS011;12309;51.450;-2.624;2023-04-01T01:45:39;9.67;;;2.80;;
24147;SDS011;12309;51.450;-2.624;2023-04-01T01:48:09;10.63;;;3.47;;
24147;SDS011;12309;51.450;-2.624;2023-04-01T01:50:36;10.93;;;3.57;;
24147;SDS011;12309;51.450;-2.624;2023-04-01T01:53:06;11.50;;;3.47;;
24147;SDS011;12309;51.450;-2.624;2023-04-01T01:55:36;9.97;;;3.50;;
24147;SDS011;12309;51.450;-2.624;2023-04-01T01:58:20;12.77;;;3.77;;
24147;SDS011;12309;51.450;-2.624;2023-04-01T02:00:51;13.57;;;3.50;;
24147;SDS011;12309;51.450;-2.624;2023-04-01T02:03:20;14.60;;;4.27;;
24147;SDS011;12309;51.450;-2.624;2023-04-01T02:05:48;14.80;;;4.00;;
24147;SDS011;12309;51.450;-2.624;2023-04-01T02:08:18;9.73;;;3.40;;
24147;SDS011;12309;51.450;-2.624;2023-04-01T02:10:58;13.00;;;3.90;;
24147;SDS011;12309;51.450;-2.624;2023-04-01T02:13:31;13.70;;;3.80;;
24147;SDS011;12309;51.450;-2.624;2023-04-01T02:16:06;17.53;;;4.47;;
24147;SDS011;12309;51.450;-2.624;2023-04-01T02:18:46;14.37;;;4.83;;
24147;SDS011;12309;51.450;-2.624;2023-04-01T02:21:15;12.87;;;4.17;;
24147;SDS011;12309;51.450;-2.624;2023-04-01T02:23:43;14.90;;;4.73;;
24147;SDS011;12309;51.450;-2.624;2023-04-01T02:26:10;14.03;;;4.07;;
24147;SDS011;12309;51.450;-2.624;2023-04-01T02:28:37;13.77;;;4.20;;
24147;SDS011;12309;51.450;-2.624;2023-04-01T02:31:05;11.47;;;3.53;;
24147;SDS011;12309;51.450;-2.624;2023-04-01T02:33:32;15.10;;;4.40;;
24147;SDS011;12309;51.450;-2.624;2023-04-01T02:35:58;14.03;;;4.07;;
24147;SDS011;12309;51.450;-2.624;2023-04-01T02:38:24;10.63;;;4.27;;
24147;SDS011;12309;51.450;-2.624;2023-04-01T02:40:52;16.70;;;4.07;;
24147;SDS011;12309;51.450;-2.624;2023-04-01T02:43:25;14.10;;;3.77;;
24147;SDS011;12309;51.450;-2.624;2023-04-01T02:45:51;13.43;;;3.87;;
24147;SDS011;12309;51.450;-2.624;2023-04-01T02:48:17;12.43;;;3.77;;
24147;SDS011;12309;51.450;-2.624;2023-04-01T02:50:43;12.90;;;3.73;;
24147;SDS011;12309;51.450;-2.624;2023-04-01T02:53:08;12.73;;;3.50;;
24147;SDS011;12309;51.450;-2.624;2023-04-01T02:55:34;11.47;;;3.20;;
24147;SDS011;12309;51.450;-2.624;2023-04-01T02:58:00;14.53;;;3.10;;
24147;SDS011;12309;51.450;-2.624;2023-04-01T03:00:26;8.83;;;2.50;;
24147;SDS011;12309;51.450;-2.624;2023-04-01T03:02:52;12.93;;;3.00;;
24147;SDS011;12309;51.450;-2.624;2023-04-01T03:05:18;8.77;;;2.50;;
24147;SDS011;12309;51.450;-2.624;2023-04-01T03:07:44;10.73;;;3.20;;
24147;SDS011;12309;51.450;-2.624;2023-04-01T03:10:10;9.23;;;2.60;;
24147;SDS011;12309;51.450;-2.624;2023-04-01T03:12:36;10.03;;;2.77;;
24147;SDS011;12309;51.450;-2.624;2023-04-01T03:15:02;11.77;;;2.90;;
24147;SDS011;12309;51.450;-2.624;2023-04-01T03:17:28;8.93;;;3.00;;
24147;SDS011;12309;51.450;-2.624;2023-04-01T03:19:53;9.80;;;2.90;;
24147;SDS011;12309;51.450;-2.624;2023-04-01T03:22:19;7.47;;;2.90;;
24147;SDS011;12309;51.450;-2.624;2023-04-01T03:24:46;11.50;;;3.40;;
24147;SDS011;12309;51.450;-2.624;2023-04-01T03:27:12;11.03;;;3.47;;
24147;SDS011;12309;51.450;-2.624;2023-04-01T03:29:38;13.67;;;3.87;;
24147;SDS011;12309;51.450;-2.624;2023-04-01T03:32:04;15.27;;;3.57;;
24147;SDS011;12309;51.450;-2.624;2023-04-01T03:34:30;8.63;;;3.40;;
24147;SDS011;12309;51.450;-2.624;2023-04-01T03:36:56;10.70;;;3.47;;
24147;SDS011;12309;51.450;-2.624;2023-04-01T03:39:22;9.17;;;3.17;;
24147;SDS011;12309;51.450;-2.624;2023-04-01T03:41:47;8.37;;;2.83;;
24147;SDS011;12309;51.450;-2.624;2023-04-01T03:44:13;13.13;;;3.73;;
24147;SDS011;12309;51.450;-2.624;2023-04-01T03:46:39;7.70;;;2.90;;
24147;SDS011;12309;51.450;-2.624;2023-04-01T03:49:08;9.27;;;3.37;;
24147;SDS011;12309;51.450;-2.624;2023-04-01T03:51:39;9.77;;;3.70;;
24147;SDS011;12309;51.450;-2.624;2023-04-01T03:54:06;11.00;;;3.43;;
24147;SDS011;12309;51.450;-2.624;2023-04-01T03:56:33;15.93;;;3.67;;
24147;SDS011;12309;51.450;-2.624;2023-04-01T03:59:01;11.60;;;3.47;;
24147;SDS011;12309;51.450;-2.624;2023-04-01T04:01:28;10.30;;;3.00;;
24147;SDS011;12309;51.450;-2.624;2023-04-01T04:03:54;14.63;;;3.40;;
24147;SDS011;12309;51.450;-2.624;2023-04-01T04:06:20;11.43;;;3.23;;
24147;SDS011;12309;51.450;-2.624;2023-04-01T04:08:46;13.70;;;3.53;;
24147;SDS011;12309;51.450;-2.624;2023-04-01T04:11:11;10.50;;;3.30;;
24147;SDS011;12309;51.450;-2.624;2023-04-01T04:13:37;10.13;;;3.67;;
24147;SDS011;12309;51.450;-2.624;2023-04-01T04:16:03;8.40;;;3.37;;
24147;SDS011;12309;51.450;-2.624;2023-04-01T04:18:29;14.80;;;3.40;;
24147;SDS011;12309;51.450;-2.624;2023-04-01T04:20:55;10.60;;;3.40;;
24147;SDS011;12309;51.450;-2.624;2023-04-01T04:23:21;8.13;;;3.10;;
24147;SDS011;12309;51.450;-2.624;2023-04-01T04:25:57;11.43;;;3.13;;
24147;SDS011;12309;51.450;-2.624;2023-04-01T04:28:24;7.43;;;2.53;;
24147;SDS011;12309;51.450;-2.624;2023-04-01T04:30:51;8.17;;;2.53;;
24147;SDS011;12309;51.450;-2.624;2023-04-01T04:33:16;7.87;;;2.73;;
24147;SDS011;12309;51.450;-2.624;2023-04-01T04:35:42;15.27;;;3.00;;
24147;SDS011;12309;51.450;-2.624;2023-04-01T04:38:08;16.47;;;2.80;;
24147;SDS011;12309;51.450;-2.624;2023-04-01T04:40:35;6.63;;;2.17;;
24147;SDS011;12309;51.450;-2.624;2023-04-01T04:43:02;10.17;;;2.37;;
24147;SDS011;12309;51.450;-2.624;2023-04-01T04:45:28;10.13;;;2.80;;
24147;SDS011;12309;51.450;-2.624;2023-04-01T04:47:55;7.27;;;2.70;;
24147;SDS011;12309;51.450;-2.624;2023-04-01T04:50:20;10.87;;;2.97;;
24147;SDS011;12309;51.450;-2.624;2023-04-01T04:52:46;6.73;;;2.53;;
24147;SDS011;12309;51.450;-2.624;2023-04-01T04:55:11;9.87;;;3.07;;
24147;SDS011;12309;51.450;-2.624;2023-04-01T04:57:37;11.17;;;2.77;;
24147;SDS011;12309;51.450;-2.624;2023-04-01T05:00:03;11.67;;;2.67;;
24147;SDS011;12309;51.450;-2.624;2023-04-01T05:02:29;11.30;;;3.00;;
24147;SDS011;12309;51.450;-2.624;2023-04-01T05:04:54;9.00;;;2.80;;
24147;SDS011;12309;51.450;-2.624;2023-04-01T05:07:20;10.40;;;3.13;;
24147;SDS011;12309;51.450;-2.624;2023-04-01T05:09:46;13.00;;;2.70;;
24147;SDS011;12309;51.450;-2.624;2023-04-01T05:12:12;9.70;;;3.23;;
24147;SDS011;12309;51.450;-2.624;2023-04-01T05:14:38;10.20;;;3.00;;
24147;SDS011;12309;51.450;-2.624;2023-04-01T05:17:05;9.17;;;3.60;;
24147;SDS011;12309;51.450;-2.624;2023-04-01T05:19:34;14.30;;;3.57;;
24147;SDS011;12309;51.450;-2.624;2023-04-01T05:22:00;9.97;;;3.60;;
24147;SDS011;12309;51.450;-2.624;2023-04-01T05:24:26;9.87;;;3.70;;
24147;SDS011;12309;51.450;-2.624;2023-04-01T05:26:51;9.83;;;3.37;;
24147;SDS011;12309;51.450;-2.624;2023-04-01T05:29:17;14.47;;;3.20;;
24147;SDS011;12309;51.450;-2.624;2023-04-01T05:31:43;10.37;;;3.27;;
24147;SDS011;12309;51.450;-2.624;2023-04-01T05:34:08;10.13;;;2.83;;
24147;SDS011;12309;51.450;-2.624;2023-04-01T05:36:35;8.27;;;3.07;;
24147;SDS011;12309;51.450;-2.624;2023-04-01T05:39:01;6.87;;;2.87;;
24147;SDS011;12309;51.450;-2.624;2023-04-01T05:41:27;4.67;;;2.73;;
24147;SDS011;12309;51.450;-2.624;2023-04-01T05:43:53;10.70;;;2.60;;
24147;SDS011;12309;51.450;-2.624;2023-04-01T05:46:18;6.77;;;2.67;;
24147;SDS011;12309;51.450;-2.624;2023-04-01T05:48:44;9.13;;;3.07;;
24147;SDS011;12309;51.450;-2.624;2023-04-01T05:51:13;8.10;;;3.27;;
24147;SDS011;12309;51.450;-2.624;2023-04-01T05:53:40;8.60;;;3.03;;
24147;SDS011;12309;51.450;-2.624;2023-04-01T05:56:06;9.13;;;3.27;;
24147;SDS011;12309;51.450;-2.624;2023-04-01T05:58:34;10.57;;;3.40;;
24147;SDS011;12309;51.450;-2.624;2023-04-01T06:01:04;10.53;;;3.20;;
24147;SDS011;12309;51.450;-2.624;2023-04-01T06:03:32;11.50;;;3.50;;
24147;SDS011;12309;51.450;-2.624;2023-04-01T06:05:58;9.97;;;3.37;;
24147;SDS011;12309;51.450;-2.624;2023-04-01T06:08:24;15.30;;;3.73;;
24147;SDS011;12309;51.450;-2.624;2023-04-01T06:13:46;8.97;;;2.90;;
24147;SDS011;12309;51.450;-2.624;2023-04-01T06:24:41;9.07;;;3.60;;
24147;SDS011;12309;51.450;-2.624;2023-04-01T06:32:45;10.10;;;3.60;;
24147;SDS011;12309;51.450;-2.624;2023-04-01T06:35:35;12.43;;;3.63;;
24147;SDS011;12309;51.450;-2.624;2023-04-01T06:38:10;10.70;;;3.23;;
24147;SDS011;12309;51.450;-2.624;2023-04-01T06:44:45;11.93;;;3.20;;
24147;SDS011;12309;51.450;-2.624;2023-04-01T06:46:48;10.53;;;3.20;;
24147;SDS011;12309;51.450;-2.624;2023-04-01T06:55:12;11.03;;;3.37;;
24147;SDS011;12309;51.450;-2.624;2023-04-01T06:57:41;12.60;;;3.30;;
24147;SDS011;12309;51.450;-2.624;2023-04-01T07:00:13;9.87;;;3.40;;
24147;SDS011;12309;51.450;-2.624;2023-04-01T07:05:48;14.57;;;3.33;;
24147;SDS011;12309;51.450;-2.624;2023-04-01T07:08:17;11.00;;;3.60;;
24147;SDS011;12309;51.450;-2.624;2023-04-01T07:11:00;13.50;;;3.23;;
24147;SDS011;12309;51.450;-2.624;2023-04-01T07:13:30;9.73;;;3.23;;
24147;SDS011;12309;51.450;-2.624;2023-04-01T07:16:16;9.80;;;3.60;;
24147;SDS011;12309;51.450;-2.624;2023-04-01T07:21:52;13.53;;;3.37;;
24147;SDS011;12309;51.450;-2.624;2023-04-01T07:24:24;12.93;;;3.03;;
24147;SDS011;12309;51.450;-2.624;2023-04-01T07:27:02;12.10;;;3.30;;
24147;SDS011;12309;51.450;-2.624;2023-04-01T07:29:30;9.00;;;3.17;;
24147;SDS011;12309;51.450;-2.624;2023-04-01T07:43:11;7.33;;;2.80;;
24147;SDS011;12309;51.450;-2.624;2023-04-01T07:48:54;5.70;;;2.83;;
24147;SDS011;12309;51.450;-2.624;2023-04-01T07:51:30;13.40;;;3.30;;
24147;SDS011;12309;51.450;-2.624;2023-04-01T07:56:50;11.07;;;3.27;;
24147;SDS011;12309;51.450;-2.624;2023-04-01T08:10:18;7.47;;;2.50;;
24147;SDS011;12309;51.450;-2.624;2023-04-01T08:12:52;7.83;;;2.07;;
24147;SDS011;12309;51.450;-2.624;2023-04-01T08:15:33;3.87;;;1.70;;
24147;SDS011;12309;51.450;-2.624;2023-04-01T08:18:41;5.87;;;1.70;;
24147;SDS011;12309;51.450;-2.624;2023-04-01T08:23:52;4.47;;;1.33;;
24147;SDS011;12309;51.450;-2.624;2023-04-01T08:32:05;3.53;;;1.10;;
24147;SDS011;12309;51.450;-2.624;2023-04-01T08:34:45;3.47;;;0.60;;
24147;SDS011;12309;51.450;-2.624;2023-04-01T08:37:22;2.43;;;0.50;;
24147;SDS011;12309;51.450;-2.624;2023-04-01T08:39:58;4.43;;;0.37;;
24147;SDS011;12309;51.450;-2.624;2023-04-01T09:01:11;1.33;;;0.37;;
24147;SDS011;12309;51.450;-2.624;2023-04-01T09:14:57;2.93;;;0.83;;
24147;SDS011;12309;51.450;-2.624;2023-04-01T09:28:13;0.70;;;0.40;;
24147;SDS011;12309;51.450;-2.624;2023-04-01T09:36:46;0.23;;;0.20;;
24147;SDS011;12309;51.450;-2.624;2023-04-01T09:42:15;0.70;;;0.20;;
24147;SDS011;12309;51.450;-2.624;2023-04-01T09:45:00;0.13;;;0.13;;
24147;SDS011;12309;51.450;-2.624;2023-04-01T09:47:43;3.77;;;0.30;;
24147;SDS011;12309;51.450;-2.624;2023-04-01T09:50:30;0.30;;;0.20;;
24147;SDS011;12309;51.450;-2.624;2023-04-01T10:26:52;1.00;;;0.20;;
24147;SDS011;12309;51.450;-2.624;2023-04-01T10:37:42;1.97;;;0.20;;
24147;SDS011;12309;51.450;-2.624;2023-04-01T10:43:34;1.73;;;0.60;;
24147;SDS011;12309;51.450;-2.624;2023-04-01T10:57:42;3.70;;;3.13;;
24147;SDS011;12309;51.450;-2.624;2023-04-01T11:00:47;4.33;;;3.23;;
24147;SDS011;12309;51.450;-2.624;2023-04-01T11:03:29;4.33;;;3.10;;
24147;SDS011;12309;51.450;-2.624;2023-04-01T11:25:50;3.93;;;3.53;;
24147;SDS011;12309;51.450;-2.624;2023-04-01T11:28:37;5.77;;;4.10;;
24147;SDS011;12309;51.450;-2.624;2023-04-01T11:31:29;5.13;;;3.53;;
24147;SDS011;12309;51.450;-2.624;2023-04-01T11:44:34;5.00;;;4.17;;
24147;SDS011;12309;51.450;-2.624;2023-04-01T11:55:51;7.23;;;5.73;;
24147;SDS011;12309;51.450;-2.624;2023-04-01T12:01:33;10.15;;;7.20;;
24147;SDS011;12309;51.450;-2.624;2023-04-01T12:04:17;11.07;;;7.05;;
24147;SDS011;12309;51.450;-2.624;2023-04-01T12:15:15;13.97;;;7.93;;
24147;SDS011;12309;51.450;-2.624;2023-04-01T12:18:30;11.30;;;9.07;;
24147;SDS011;12309;51.450;-2.624;2023-04-01T12:24:05;12.23;;;8.20;;
24147;SDS011;12309;51.450;-2.624;2023-04-01T12:29:42;10.77;;;7.50;;
24147;SDS011;12309;51.450;-2.624;2023-04-01T12:36:30;8.60;;;7.03;;
24147;SDS011;12309;51.450;-2.624;2023-04-01T12:38:41;11.70;;;7.50;;
24147;SDS011;12309;51.450;-2.624;2023-04-01T12:41:18;14.07;;;7.75;;
24147;SDS011;12309;51.450;-2.624;2023-04-01T12:52:11;11.57;;;8.20;;
24147;SDS011;12309;51.450;-2.624;2023-04-01T13:03:06;9.02;;;6.03;;
24147;SDS011;12309;51.450;-2.624;2023-04-01T13:11:24;9.07;;;4.78;;
24147;SDS011;12309;51.450;-2.624;2023-04-01T13:14:12;5.32;;;4.78;;
24147;SDS011;12309;51.450;-2.624;2023-04-01T13:19:50;7.22;;;4.20;;
24147;SDS011;12309;51.450;-2.624;2023-04-01T13:28:23;5.68;;;4.85;;
24147;SDS011;12309;51.450;-2.624;2023-04-01T13:30:59;7.85;;;4.88;;
24147;SDS011;12309;51.450;-2.624;2023-04-01T14:17:53;5.47;;;3.05;;
24147;SDS011;12309;51.450;-2.624;2023-04-01T14:23:29;4.30;;;3.33;;
24147;SDS011;12309;51.450;-2.624;2023-04-01T14:31:47;6.75;;;3.25;;
24147;SDS011;12309;51.450;-2.624;2023-04-01T14:34:29;5.80;;;4.47;;
24147;SDS011;12309;51.450;-2.624;2023-04-01T14:37:23;4.65;;;3.28;;
24147;SDS011;12309;51.450;-2.624;2023-04-01T14:40:05;6.38;;;2.90;;
24147;SDS011;12309;51.450;-2.624;2023-04-01T14:45:42;7.50;;;3.45;;
24147;SDS011;12309;51.450;-2.624;2023-04-01T14:48:28;5.30;;;3.17;;
24147;SDS011;12309;51.450;-2.624;2023-04-01T14:54:16;6.57;;;3.58;;
24147;SDS011;12309;51.450;-2.624;2023-04-01T14:56:51;5.07;;;2.03;;
24147;SDS011;12309;51.450;-2.624;2023-04-01T15:00:12;3.60;;;2.50;;
24147;SDS011;12309;51.450;-2.624;2023-04-01T15:02:51;4.70;;;2.50;;
24147;SDS011;12309;51.450;-2.624;2023-04-01T15:05:49;3.75;;;2.17;;
24147;SDS011;12309;51.450;-2.624;2023-04-01T15:08:47;4.35;;;1.73;;
24147;SDS011;12309;51.450;-2.624;2023-04-01T15:14:23;3.58;;;1.58;;
24147;SDS011;12309;51.450;-2.624;2023-04-01T15:25:13;1.85;;;1.08;;
24147;SDS011;12309;51.450;-2.624;2023-04-01T15:30:32;3.08;;;1.00;;
24147;SDS011;12309;51.450;-2.624;2023-04-01T15:33:05;1.77;;;1.00;;
24147;SDS011;12309;51.450;-2.624;2023-04-01T15:38:49;1.20;;;0.85;;
24147;SDS011;12309;51.450;-2.624;2023-04-01T15:41:29;2.53;;;0.90;;
24147;SDS011;12309;51.450;-2.624;2023-04-01T15:44:03;1.55;;;0.70;;
24147;SDS011;12309;51.450;-2.624;2023-04-01T15:46:49;2.22;;;1.15;;
24147;SDS011;12309;51.450;-2.624;2023-04-01T15:49:18;1.52;;;1.00;;
24147;SDS011;12309;51.450;-2.624;2023-04-01T15:51:47;2.53;;;0.90;;
24147;SDS011;12309;51.450;-2.624;2023-04-01T15:54:38;1.73;;;0.98;;
24147;SDS011;12309;51.450;-2.624;2023-04-01T16:00:30;1.67;;;0.88;;
24147;SDS011;12309;51.450;-2.624;2023-04-01T16:11:12;3.28;;;1.13;;
24147;SDS011;12309;51.450;-2.624;2023-04-01T16:19:41;1.83;;;1.00;;
24147;SDS011;12309;51.450;-2.624;2023-04-01T16:28:13;1.65;;;0.60;;
24147;SDS011;12309;51.450;-2.624;2023-04-01T16:44:31;4.45;;;1.00;;
24147;SDS011;12309;51.450;-2.624;2023-04-01T16:47:19;3.15;;;1.30;;
24147;SDS011;12309;51.450;-2.624;2023-04-01T16:49:56;2.88;;;1.30;;
24147;SDS011;12309;51.450;-2.624;2023-04-01T16:55:24;4.90;;;1.58;;
24147;SDS011;12309;51.450;-2.624;2023-04-01T16:58:26;2.00;;;1.20;;
24147;SDS011;12309;51.450;-2.624;2023-04-01T17:01:00;3.60;;;1.55;;
24147;SDS011;12309;51.450;-2.624;2023-04-01T17:03:32;2.88;;;1.35;;
24147;SDS011;12309;51.450;-2.624;2023-04-01T17:12:17;2.70;;;1.30;;
24147;SDS011;12309;51.450;-2.624;2023-04-01T17:27:59;1.85;;;0.93;;
24147;SDS011;12309;51.450;-2.624;2023-04-01T17:30:35;4.13;;;1.27;;
24147;SDS011;12309;51.450;-2.624;2023-04-01T17:55:22;2.28;;;1.20;;
24147;SDS011;12309;51.450;-2.624;2023-04-01T17:58:03;2.03;;;1.13;;
24147;SDS011;12309;51.450;-2.624;2023-04-01T18:11:29;2.10;;;1.13;;
24147;SDS011;12309;51.450;-2.624;2023-04-01T18:16:51;2.13;;;0.93;;
24147;SDS011;12309;51.450;-2.624;2023-04-01T18:22:29;1.55;;;0.90;;
24147;SDS011;12309;51.450;-2.624;2023-04-01T18:27:37;1.67;;;0.90;;
24147;SDS011;12309;51.450;-2.624;2023-04-01T18:30:17;4.70;;;1.20;;
24147;SDS011;12309;51.450;-2.624;2023-04-01T18:33:09;3.50;;;0.90;;
24147;SDS011;12309;51.450;-2.624;2023-04-01T18:35:58;1.70;;;0.80;;
24147;SDS011;12309;51.450;-2.624;2023-04-01T18:38:28;1.83;;;0.83;;
24147;SDS011;12309;51.450;-2.624;2023-04-01T18:44:31;2.67;;;0.97;;
24147;SDS011;12309;51.450;-2.624;2023-04-01T18:55:46;3.53;;;1.53;;
24147;SDS011;12309;51.450;-2.624;2023-04-01T19:04:15;2.80;;;1.70;;
24147;SDS011;12309;51.450;-2.624;2023-04-01T19:26:42;3.50;;;1.90;;
24147;SDS011;12309;51.450;-2.624;2023-04-01T19:32:08;6.13;;;1.93;;
24147;SDS011;12309;51.450;-2.624;2023-04-01T19:34:57;4.73;;;2.27;;
24147;SDS011;12309;51.450;-2.624;2023-04-01T19:37:31;4.40;;;2.00;;
24147;SDS011;12309;51.450;-2.624;2023-04-01T19:51:13;3.70;;;1.47;;
24147;SDS011;12309;51.450;-2.624;2023-04-01T19:56:31;3.30;;;1.60;;
24147;SDS011;12309;51.450;-2.624;2023-04-01T19:59:23;2.03;;;1.30;;
24147;SDS011;12309;51.450;-2.624;2023-04-01T20:02:01;2.23;;;1.20;;
24147;SDS011;12309;51.450;-2.624;2023-04-01T20:12:05;3.17;;;1.40;;
24147;SDS011;12309;51.450;-2.624;2023-04-01T20:14:45;3.80;;;1.60;;
24147;SDS011;12309;51.450;-2.624;2023-04-01T20:19:59;3.93;;;1.40;;
24147;SDS011;12309;51.450;-2.624;2023-04-01T20:23:16;2.50;;;1.23;;
24147;SDS011;12309;51.450;-2.624;2023-04-01T20:28:02;3.60;;;1.40;;
24147;SDS011;12309;51.450;-2.624;2023-04-01T20:36:03;1.67;;;1.20;;
24147;SDS011;12309;51.450;-2.624;2023-04-01T20:41:23;2.70;;;1.60;;
24147;SDS011;12309;51.450;-2.624;2023-04-01T20:49:23;3.77;;;1.30;;
24147;SDS011;12309;51.450;-2.624;2023-04-01T20:57:38;6.07;;;2.07;;
24147;SDS011;12309;51.450;-2.624;2023-04-01T21:00:38;3.13;;;1.60;;
24147;SDS011;12309;51.450;-2.624;2023-04-01T21:06:29;2.03;;;1.83;;
24147;SDS011;12309;51.450;-2.624;2023-04-01T21:17:01;6.33;;;4.13;;
24147;SDS011;12309;51.450;-2.624;2023-04-01T21:20:03;8.67;;;5.93;;
24147;SDS011;12309;51.450;-2.624;2023-04-01T21:27:49;3.90;;;1.60;;
24147;SDS011;12309;51.450;-2.624;2023-04-01T21:33:20;2.23;;;1.37;;
24147;SDS011;12309;51.450;-2.624;2023-04-01T21:55:28;4.20;;;1.10;;
24147;SDS011;12309;51.450;-2.624;2023-04-01T22:03:46;3.33;;;1.13;;
24147;SDS011;12309;51.450;-2.624;2023-04-01T22:06:18;4.43;;;1.20;;
24147;SDS011;12309;51.450;-2.624;2023-04-01T22:11:45;3.47;;;1.00;;
24147;SDS011;12309;51.450;-2.624;2023-04-01T22:14:28;3.30;;;1.40;;
24147;SDS011;12309;51.450;-2.624;2023-04-01T22:22:01;3.37;;;1.30;;
24147;SDS011;12309;51.450;-2.624;2023-04-01T22:24:51;3.10;;;1.60;;
24147;SDS011;12309;51.450;-2.624;2023-04-01T22:32:49;3.00;;;1.57;;
24147;SDS011;12309;51.450;-2.624;2023-04-01T22:35:27;4.80;;;1.50;;
24147;SDS011;12309;51.450;-2.624;2023-04-01T22:38:12;6.47;;;1.70;;
24147;SDS011;12309;51.450;-2.624;2023-04-01T22:40:48;2.00;;;1.30;;
24147;SDS011;12309;51.450;-2.624;2023-04-01T22:43:41;1.90;;;1.50;;
24147;SDS011;12309;51.450;-2.624;2023-04-01T22:48:47;3.07;;;1.37;;
24147;SDS011;12309;51.450;-2.624;2023-04-01T22:51:24;1.77;;;1.30;;
24147;SDS011;12309;51.450;-2.624;2023-04-01T22:56:52;10.53;;;1.60;;
24147;SDS011;12309;51.450;-2.624;2023-04-01T22:59:23;2.80;;;1.43;;
24147;SDS011;12309;51.450;-2.624;2023-04-01T23:02:01;2.63;;;1.30;;
24147;SDS011;12309;51.450;-2.624;2023-04-01T23:04:33;3.47;;;1.30;;
24147;SDS011;12309;51.450;-2.624;2023-04-01T23:07:05;3.20;;;1.40;;
24147;SDS011;12309;51.450;-2.624;2023-04-01T23:10:15;4.50;;;1.30;;
24147;SDS011;12309;51.450;-2.624;2023-04-01T23:13:04;1.87;;;1.40;;
24147;SDS011;12309;51.450;-2.624;2023-04-01T23:15:37;3.93;;;1.87;;
24147;SDS011;12309;51.450;-2.624;2023-04-01T23:26:11;3.33;;;1.37;;
24147;SDS011;12309;51.450;-2.624;2023-04-01T23:34:14;2.87;;;1.50;;
24147;SDS011;12309;51.450;-2.624;2023-04-01T23:36:47;4.47;;;1.50;;
24147;SDS011;12309;51.450;-2.624;2023-04-01T23:42:43;4.03;;;1.73;;
24147;SDS011;12309;51.450;-2.624;2023-04-01T23:45:11;2.97;;;1.37;;
24147;SDS011;12309;51.450;-2.624;2023-04-01T23:47:42;3.80;;;1.70;;
24147;SDS011;12309;51.450;-2.624;2023-04-01T23:50:11;3.93;;;1.67;;
24147;SDS011;12309;51.450;-2.624;2023-04-01T23:52:43;2.13;;;1.60;;
24147;SDS011;12309;51.450;-2.624;2023-04-01T23:55:15;4.93;;;1.50;;
